Time;durP1;ratioP1;P1;durP2;ratioP2;P2;SDS_P1;SDS_P2;PMS_P1;PMS_P2;Temp;Humidity;BMP_temperature;BMP_pressure;BME280_temperature;BME280_humidity;BME280_pressure;Samples;Min_cycle;Max_cycle;Signal;HPM_P1;HPM_P2
2022/07/01 00:00:33;;;;;;;;;;;;;;;20.83;48.81;101179.59;7284524;19;152864;-80
2022/07/01 00:03:00;;;;;;;;;;;;;;;20.99;48.42;101179.34;7276970;19;153777;-81
2022/07/01 00:05:26;;;;;;;;;;;;;;;20.94;48.54;101182.25;7274232;19;153755;-81
2022/07/01 00:07:53;;;;;;;;;;;;;;;20.96;48.52;101172.38;7277617;19;155142;-80
2022/07/01 00:10:20;;;;;;;;;;;;;;;20.86;49.13;101175.34;7276018;19;152090;-81
2022/07/01 00:12:47;;;;;;;;;;;;;;;20.82;48.91;101174.28;7284735;19;152492;-80
2022/07/01 00:15:14;;;;;;;;;;;;;;;20.84;48.99;101183.25;7282784;19;154306;-80
2022/07/01 00:17:42;;;;;;;;;;;;;;;20.86;49.09;101187.41;7285833;19;152479;-80
2022/07/01 00:20:09;;;;;;;;;;;;;;;20.89;48.92;101180.38;7283126;19;153640;-80
2022/07/01 00:22:36;;;;;;;;;;;;;;;20.84;48.86;101178.47;7288763;19;154706;-81
2022/07/01 00:25:03;;;;;;;;;;;;;;;20.85;48.76;101182.09;7280381;19;153279;-80
2022/07/01 00:27:30;;;;;;;;;;;;;;;20.83;48.83;101185.22;7284697;19;156313;-80
2022/07/01 00:29:58;;;;;;;;;;;;;;;20.84;48.53;101181.28;7284621;19;152205;-80
2022/07/01 00:32:27;;;;;;;;;;;;;;;20.87;48.69;101185.44;7284112;19;152804;-81
2022/07/01 00:34:53;;;;;;;;;;;;;;;20.74;49.26;101186.22;7282482;19;153506;-80
2022/07/01 00:37:20;;;;;;;;;;;;;;;20.80;48.94;101182.19;7284356;19;152426;-78
2022/07/01 00:39:47;;;;;;;;;;;;;;;20.79;48.93;101184.16;7286014;19;153893;-80
2022/07/01 00:42:13;;;;;;;;;;;;;;;20.81;48.86;101190.28;7284603;19;153547;-81
2022/07/01 00:44:40;;;;;;;;;;;;;;;20.73;49.24;101192.94;7292656;19;152270;-83
2022/07/01 00:47:16;;;;;;;;;;;;;;;20.72;49.23;101186.50;7283369;19;154512;-80
2022/07/01 00:49:44;;;;;;;;;;;;;;;20.76;49.16;101184.75;7280741;19;151982;-80
2022/07/01 00:52:11;;;;;;;;;;;;;;;20.80;49.36;101179.38;7283748;19;153497;-80
2022/07/01 00:54:38;;;;;;;;;;;;;;;20.81;48.79;101189.47;7282182;19;153227;-80
2022/07/01 00:57:12;;;;;;;;;;;;;;;20.83;48.77;101182.41;7285068;19;153165;-79
2022/07/01 00:59:39;;;;;;;;;;;;;;;20.88;48.92;101189.91;7284234;19;153832;-79
2022/07/01 01:02:08;;;;;;;;;;;;;;;20.75;49.29;101185.06;7281399;19;154306;-81
2022/07/01 01:04:35;;;;;;;;;;;;;;;20.83;49.10;101178.75;7284320;19;153226;-81
2022/07/01 01:07:07;;;;;;;;;;;;;;;20.71;49.86;101184.84;7283911;19;153033;-82
2022/07/01 01:09:42;;;;;;;;;;;;;;;20.75;49.88;101176.66;7282183;19;152650;-82
2022/07/01 01:12:11;;;;;;;;;;;;;;;20.75;50.08;101185.91;7282030;19;152703;-82
2022/07/01 01:14:54;;;;;;;;;;;;;;;20.78;49.96;101176.88;7282207;19;153195;-82
2022/07/01 01:17:24;;;;;;;;;;;;;;;20.83;49.94;101182.41;7284158;19;152620;-83
2022/07/01 01:19:56;;;;;;;;;;;;;;;20.89;49.67;101177.56;7280555;19;153715;-83
2022/07/01 01:22:22;;;;;;;;;;;;;;;20.84;49.64;101181.28;7278656;19;153240;-82
2022/07/01 01:24:49;;;;;;;;;;;;;;;20.87;49.68;101177.00;7271447;19;155898;-84
2022/07/01 01:27:16;;;;;;;;;;;;;;;20.78;49.79;101174.06;7284093;19;153437;-82
2022/07/01 01:29:44;;;;;;;;;;;;;;;20.84;50.15;101169.22;7288290;19;154550;-82
2022/07/01 01:32:12;;;;;;;;;;;;;;;20.86;49.53;101181.78;7285621;19;153121;-82
2022/07/01 01:34:40;;;;;;;;;;;;;;;20.90;49.93;101179.19;7281710;19;153198;-82
2022/07/01 01:37:09;;;;;;;;;;;;;;;20.87;50.09;101182.63;7283727;19;152242;-82
2022/07/01 01:39:39;;;;;;;;;;;;;;;20.85;49.94;101182.09;7282881;19;153343;-82
2022/07/01 01:42:06;;;;;;;;;;;;;;;20.82;50.05;101179.91;7284226;19;153168;-82
2022/07/01 01:44:33;;;;;;;;;;;;;;;20.80;50.49;101177.38;7283637;19;151629;-82
2022/07/01 01:47:01;;;;;;;;;;;;;;;20.85;50.29;101170.84;7283966;19;154601;-82
2022/07/01 01:49:28;;;;;;;;;;;;;;;20.78;50.52;101176.88;7282953;19;154258;-82
2022/07/01 01:51:57;;;;;;;;;;;;;;;20.84;50.11;101167.25;7291068;19;152246;-81
2022/07/01 01:54:24;;;;;;;;;;;;;;;20.81;50.82;101181.88;7284016;19;153558;-82
2022/07/01 01:56:51;;;;;;;;;;;;;;;20.84;50.55;101178.47;7285088;19;152107;-82
2022/07/01 01:59:19;;;;;;;;;;;;;;;20.82;50.56;101177.94;7284267;19;153728;-81
2022/07/01 02:01:46;;;;;;;;;;;;;;;20.75;50.84;101176.66;7283665;19;153434;-81
2022/07/01 02:04:13;;;;;;;;;;;;;;;20.73;51.19;101176.94;7282866;19;152639;-81
2022/07/01 02:06:42;;;;;;;;;;;;;;;20.69;51.18;101184.31;7280907;19;152757;-81
2022/07/01 02:09:09;;;;;;;;;;;;;;;20.69;51.28;101180.66;7280755;19;154697;-81
2022/07/01 02:11:36;;;;;;;;;;;;;;;20.72;51.38;101180.88;7286402;19;153050;-81
2022/07/01 02:14:04;;;;;;;;;;;;;;;20.75;51.54;101183.09;7280613;19;154127;-81
2022/07/01 02:16:33;;;;;;;;;;;;;;;20.70;51.49;101187.97;7285118;19;152166;-81
2022/07/01 02:19:00;;;;;;;;;;;;;;;20.74;51.40;101186.22;7275879;19;153603;-81
2022/07/01 02:21:28;;;;;;;;;;;;;;;20.78;51.08;101176.88;7279904;19;154468;-81
2022/07/01 02:23:55;;;;;;;;;;;;;;;20.81;51.38;101186.66;7284827;19;152525;-81
2022/07/01 02:26:21;;;;;;;;;;;;;;;20.75;51.27;101183.09;7284111;19;152935;-81
2022/07/01 02:28:48;;;;;;;;;;;;;;;20.69;51.41;101186.28;7284084;19;153414;-81
2022/07/01 02:31:15;;;;;;;;;;;;;;;20.76;51.40;101183.91;7280275;19;154328;-82
2022/07/01 02:33:42;;;;;;;;;;;;;;;20.78;51.20;101185.28;7288750;19;152294;-81
2022/07/01 02:36:09;;;;;;;;;;;;;;;20.69;51.91;101192.72;7280778;19;151776;-81
2022/07/01 02:38:35;;;;;;;;;;;;;;;20.74;51.36;101194.63;7284459;19;153879;-81
2022/07/01 02:41:02;;;;;;;;;;;;;;;20.71;51.62;101196.09;7279962;19;153896;-81
2022/07/01 02:43:29;;;;;;;;;;;;;;;20.66;52.06;101196.16;7282421;19;151741;-81
2022/07/01 02:45:56;;;;;;;;;;;;;;;20.64;51.97;101195.63;7283150;19;153516;-81
2022/07/01 02:48:23;;;;;;;;;;;;;;;20.66;52.38;101195.31;7282226;19;153563;-81
2022/07/01 02:50:50;;;;;;;;;;;;;;;20.71;52.19;101196.09;7279074;19;154904;-81
2022/07/01 02:53:17;;;;;;;;;;;;;;;20.65;52.25;101190.84;7281271;19;153226;-81
2022/07/01 02:55:43;;;;;;;;;;;;;;;20.65;52.35;101207.69;7288420;19;153137;-81
2022/07/01 02:58:10;;;;;;;;;;;;;;;20.66;52.38;101206.56;7283798;19;155052;-81
2022/07/01 03:00:37;;;;;;;;;;;;;;;20.60;52.43;101204.94;7281652;19;154566;-81
2022/07/01 03:03:03;;;;;;;;;;;;;;;20.67;52.51;101214.66;7283757;19;153011;-81
2022/07/01 03:05:30;;;;;;;;;;;;;;;20.67;52.31;101211.84;7279142;19;155966;-82
2022/07/01 03:07:57;;;;;;;;;;;;;;;20.65;52.82;101213.28;7282236;19;153232;-82
2022/07/01 03:10:23;;;;;;;;;;;;;;;20.69;52.88;101218.00;7282233;19;152339;-81
2022/07/01 03:12:51;;;;;;;;;;;;;;;20.73;52.44;101213.44;7283877;19;152932;-81
2022/07/01 03:15:17;;;;;;;;;;;;;;;20.73;52.34;101221.88;7280401;19;153518;-81
2022/07/01 03:17:46;;;;;;;;;;;;;;;20.77;52.52;101219.28;7291266;19;151686;-81
2022/07/01 03:20:13;;;;;;;;;;;;;;;20.74;52.54;101223.56;7278848;19;153520;-80
2022/07/01 03:22:42;;;;;;;;;;;;;;;20.74;52.44;101225.53;7281071;19;152537;-81
2022/07/01 03:25:09;;;;;;;;;;;;;;;20.74;52.53;101226.34;7280970;19;153358;-81
2022/07/01 03:27:36;;;;;;;;;;;;;;;20.71;52.99;101218.56;7283007;19;152858;-81
2022/07/01 03:30:04;;;;;;;;;;;;;;;20.69;52.77;101218.00;7280573;19;151843;-80
2022/07/01 03:32:30;;;;;;;;;;;;;;;20.66;53.33;101221.44;7282895;19;153655;-81
2022/07/01 03:34:57;;;;;;;;;;;;;;;20.62;53.48;101225.97;7279196;19;154686;-81
2022/07/01 03:37:25;;;;;;;;;;;;;;;20.63;53.46;101219.19;7279481;19;152299;-81
2022/07/01 03:39:53;;;;;;;;;;;;;;;20.64;53.15;101226.50;7287721;19;153878;-81
2022/07/01 03:42:20;;;;;;;;;;;;;;;20.66;53.09;101234.63;7282849;19;151725;-81
2022/07/01 03:44:46;;;;;;;;;;;;;;;20.67;53.21;101233.50;7280670;19;153443;-80
2022/07/01 03:47:19;;;;;;;;;;;;;;;20.67;52.98;101242.72;7283915;19;154318;-82
2022/07/01 03:49:45;;;;;;;;;;;;;;;20.68;53.17;101235.97;7287209;19;152794;-81
2022/07/01 03:52:12;;;;;;;;;;;;;;;20.66;53.29;101245.84;7284716;19;152505;-82
2022/07/01 03:54:40;;;;;;;;;;;;;;;20.64;53.63;101248.97;7288204;19;152420;-82
2022/07/01 03:57:09;;;;;;;;;;;;;;;20.69;53.33;101256.47;7289485;19;152291;-82
2022/07/01 03:59:37;;;;;;;;;;;;;;;20.71;53.22;101257.03;7287472;19;153296;-81
2022/07/01 04:02:04;;;;;;;;;;;;;;;20.71;52.85;101248.59;7293567;19;152525;-81
2022/07/01 04:04:31;;;;;;;;;;;;;;;20.68;53.40;101252.00;7287259;19;152969;-81
2022/07/01 04:06:59;;;;;;;;;;;;;;;20.64;53.37;101245.31;7279469;19;154712;-81
2022/07/01 04:09:27;;;;;;;;;;;;;;;20.65;53.45;101247.00;7287429;19;152999;-81
2022/07/01 04:11:54;;;;;;;;;;;;;;;20.69;53.15;101248.88;7285976;19;152254;-81
2022/07/01 04:14:21;;;;;;;;;;;;;;;20.66;53.22;101249.50;7288403;19;153261;-81
2022/07/01 04:16:47;;;;;;;;;;;;;;;20.66;53.26;101259.91;7287724;19;151911;-82
2022/07/01 04:19:15;;;;;;;;;;;;;;;20.64;53.44;101257.38;7286465;19;153496;-81
2022/07/01 04:24:28;;;;;;;;;;;;;;;20.67;53.18;101272.81;7286510;19;152991;-82
2022/07/01 04:26:55;;;;;;;;;;;;;;;20.74;53.24;101274.09;7283408;19;152786;-80
2022/07/01 04:29:22;;;;;;;;;;;;;;;20.76;52.99;101277.41;7286519;19;152270;-82
2022/07/01 04:31:49;;;;;;;;;;;;;;;20.74;53.20;101270.44;7281535;19;153353;-82
2022/07/01 04:34:16;;;;;;;;;;;;;;;20.69;53.13;101274.16;7284461;19;154213;-81
2022/07/01 04:36:43;;;;;;;;;;;;;;;20.71;53.41;101280.31;7284119;19;152370;-82
2022/07/01 04:39:10;;;;;;;;;;;;;;;20.76;53.41;101274.59;7285461;19;153699;-82
2022/07/01 04:44:21;;;;;;;;;;;;;;;20.66;53.71;101277.59;7295599;19;153061;-81
2022/07/01 04:46:48;;;;;;;;;;;;;;;20.59;53.62;101284.69;7285830;19;153544;-81
2022/07/01 04:49:15;;;;;;;;;;;;;;;20.60;54.33;101281.59;7282662;19;153359;-81
2022/07/01 04:51:42;;;;;;;;;;;;;;;20.67;53.95;101284.84;7282708;19;153326;-81
2022/07/01 04:54:09;;;;;;;;;;;;;;;20.74;53.89;101284.50;7285228;19;153180;-81
2022/07/01 04:56:37;;;;;;;;;;;;;;;20.75;53.46;101284.19;7284938;19;153029;-82
2022/07/01 04:59:10;;;;;;;;;;;;;;;20.69;53.84;101287.34;7284905;19;153826;-81
2022/07/01 05:01:36;;;;;;;;;;;;;;;20.74;53.93;101281.69;7283324;19;153691;-81
2022/07/01 05:04:03;;;;;;;;;;;;;;;20.69;53.67;101278.94;7285402;19;152053;-81
2022/07/01 05:06:30;;;;;;;;;;;;;;;20.68;54.04;101280.91;7288263;19;152970;-81
2022/07/01 05:08:57;;;;;;;;;;;;;;;20.68;54.03;101283.72;7285793;19;152265;-81
2022/07/01 05:11:23;;;;;;;;;;;;;;;20.59;54.40;101281.88;7284648;19;153920;-81
2022/07/01 05:13:50;;;;;;;;;;;;;;;20.65;54.14;101283.50;7285797;19;153518;-81
2022/07/01 05:16:17;;;;;;;;;;;;;;;20.68;54.08;101280.06;7284609;19;153196;-81
2022/07/01 05:24:15;;;;;;;;;;;;;;;20.68;54.41;101282.88;7285697;19;152573;-81
2022/07/01 05:26:42;;;;;;;;;;;;;;;20.66;54.23;101279.56;7284403;19;152796;-81
2022/07/01 05:29:08;;;;;;;;;;;;;;;20.71;53.96;101285.09;7293501;19;153498;-81
2022/07/01 05:31:35;;;;;;;;;;;;;;;20.72;54.05;101279.16;7282839;19;152617;-81
2022/07/01 05:34:02;;;;;;;;;;;;;;;20.63;54.43;101289.41;7283028;19;153123;-81
2022/07/01 05:36:30;;;;;;;;;;;;;;;20.63;54.85;101282.94;7283310;19;152264;-81
2022/07/01 05:38:57;;;;;;;;;;;;;;;20.65;55.11;101281.53;7285832;19;153369;-81
2022/07/01 05:41:24;;;;;;;;;;;;;;;20.72;55.23;101293.19;7283775;19;154240;-81
2022/07/01 05:43:50;;;;;;;;;;;;;;;20.77;55.62;101281.06;7286802;19;152304;-81
2022/07/01 05:46:17;;;;;;;;;;;;;;;20.82;55.38;101281.84;7285650;19;152584;-81
2022/07/01 05:48:44;;;;;;;;;;;;;;;20.89;55.77;101283.44;7285109;19;154403;-81
2022/07/01 05:51:11;;;;;;;;;;;;;;;20.94;55.90;101286.19;7289092;19;152131;-81
2022/07/01 05:53:38;;;;;;;;;;;;;;;21.00;55.98;101284.94;7283971;19;153323;-81
2022/07/01 05:56:05;;;;;;;;;;;;;;;21.05;56.15;101285.72;7284439;19;153670;-80
2022/07/01 05:58:36;;;;;;;;;;;;;;;21.12;55.97;101279.72;7286638;19;152476;-81
2022/07/01 06:01:02;;;;;;;;;;;;;;;21.21;55.96;101294.78;7283081;19;153784;-81
2022/07/01 06:03:35;;;;;;;;;;;;;;;21.29;55.41;101291.28;7284073;19;152072;-81
2022/07/01 06:06:02;;;;;;;;;;;;;;;21.36;55.40;101302.97;7280734;19;155846;-81
2022/07/01 06:08:29;;;;;;;;;;;;;;;21.45;54.61;101297.47;7283284;19;153801;-81
2022/07/01 06:11:08;;;;;;;;;;;;;;;21.53;54.33;101297.63;7289148;19;152637;-81
2022/07/01 06:13:35;;;;;;;;;;;;;;;21.62;54.06;101298.59;7283792;19;153176;-81
2022/07/01 06:16:01;;;;;;;;;;;;;;;21.69;53.85;101295.41;7284909;19;152713;-81
2022/07/01 06:18:39;;;;;;;;;;;;;;;21.76;53.88;101289.38;7282638;19;153477;-81
2022/07/01 06:21:11;;;;;;;;;;;;;;;21.81;53.52;101287.28;7279738;19;155313;-81
2022/07/01 06:23:38;;;;;;;;;;;;;;;21.86;53.47;101278.75;7284516;19;152499;-81
2022/07/01 06:26:05;;;;;;;;;;;;;;;21.93;53.38;101281.22;7281427;19;151999;-81
2022/07/01 06:28:32;;;;;;;;;;;;;;;21.97;53.41;101280.28;7284025;19;154563;-81
2022/07/01 06:30:58;;;;;;;;;;;;;;;22.01;53.51;101286.13;7283152;19;152813;-82
2022/07/01 06:33:29;;;;;;;;;;;;;;;22.05;53.27;101288.00;7290148;19;154494;-80
2022/07/01 06:35:56;;;;;;;;;;;;;;;22.07;52.96;101290.53;7279193;19;152505;-80
2022/07/01 06:38:23;;;;;;;;;;;;;;;22.11;53.28;101291.56;7283894;19;153541;-80
2022/07/01 06:43:35;;;;;;;;;;;;;;;22.15;52.48;101284.16;7282090;19;151805;-80
2022/07/01 06:46:02;;;;;;;;;;;;;;;22.18;52.79;101283.53;7283810;19;154427;-80
2022/07/01 06:48:39;;;;;;;;;;;;;;;22.19;52.48;101282.41;7282608;19;153780;-80
2022/07/01 06:51:09;;;;;;;;;;;;;;;22.21;52.52;101279.28;7280746;19;152527;-81
2022/07/01 06:53:36;;;;;;;;;;;;;;;22.23;52.67;101285.41;7283496;19;154562;-81
2022/07/01 06:56:03;;;;;;;;;;;;;;;22.24;52.29;101284.28;7287917;19;153264;-80
2022/07/01 06:58:31;;;;;;;;;;;;;;;22.24;52.34;101290.75;7284338;19;152791;-81
2022/07/01 07:00:59;;;;;;;;;;;;;;;22.27;52.03;101292.09;7278984;19;153705;-81
2022/07/01 07:03:26;;;;;;;;;;;;;;;22.27;51.99;101287.28;7283313;19;152037;-81
2022/07/01 07:05:53;;;;;;;;;;;;;;;22.27;51.95;101292.91;7279481;19;153697;-81
2022/07/01 07:08:20;;;;;;;;;;;;;;;22.30;52.22;101297.94;7278978;19;153082;-80
2022/07/01 07:10:46;;;;;;;;;;;;;;;22.28;51.72;101300.22;7282177;19;152070;-81
2022/07/01 07:13:13;;;;;;;;;;;;;;;22.29;51.74;101303.88;7279807;19;152611;-81
2022/07/01 07:15:41;;;;;;;;;;;;;;;22.30;52.25;101305.56;7280315;19;153409;-81
2022/07/01 07:18:08;;;;;;;;;;;;;;;22.32;51.95;101309.72;7288831;19;152835;-81
2022/07/01 07:20:34;;;;;;;;;;;;;;;22.33;52.30;101314.22;7276890;19;153327;-81
2022/07/01 07:23:01;;;;;;;;;;;;;;;22.29;52.31;101309.50;7279410;19;152140;-80
2022/07/01 07:25:28;;;;;;;;;;;;;;;22.26;52.36;101301.69;7280306;19;153538;-80
2022/07/01 07:27:54;;;;;;;;;;;;;;;22.30;52.26;101314.00;7282341;19;153238;-81
2022/07/01 07:30:21;;;;;;;;;;;;;;;22.27;52.34;101309.81;7282004;19;151912;-81
2022/07/01 07:32:48;;;;;;;;;;;;;;;22.29;52.17;101309.50;7281381;19;152741;-81
2022/07/01 07:35:15;;;;;;;;;;;;;;;22.33;52.00;101314.22;7278331;19;154274;-81
2022/07/01 07:37:42;;;;;;;;;;;;;;;22.34;51.75;101324.31;7282727;19;152158;-80
2022/07/01 07:40:12;;;;;;;;;;;;;;;22.34;52.23;101323.50;7287575;19;154335;-81
2022/07/01 07:42:39;;;;;;;;;;;;;;;22.32;51.79;101322.94;7282251;19;151810;-81
2022/07/01 07:45:06;;;;;;;;;;;;;;;22.33;52.25;101327.44;7282308;19;153080;-80
2022/07/01 07:47:33;;;;;;;;;;;;;;;22.33;51.84;101319.84;7281168;19;154277;-80
2022/07/01 07:50:00;;;;;;;;;;;;;;;22.34;51.78;101329.13;7279686;19;152085;-81
2022/07/01 07:52:27;;;;;;;;;;;;;;;22.31;51.17;101319.28;7278753;19;154667;-81
2022/07/01 07:54:54;;;;;;;;;;;;;;;22.31;51.72;101313.66;7276414;19;154431;-80
2022/07/01 07:57:30;;;;;;;;;;;;;;;22.29;51.38;101315.97;7281905;19;152314;-81
2022/07/01 07:59:57;;;;;;;;;;;;;;;22.30;51.41;101314.00;7282333;19;152102;-80
2022/07/01 08:02:24;;;;;;;;;;;;;;;22.29;51.27;101321.59;7287049;19;154140;-82
2022/07/01 08:04:51;;;;;;;;;;;;;;;22.28;51.26;101322.75;7282869;19;152970;-81
2022/07/01 08:07:29;;;;;;;;;;;;;;;22.27;51.00;101323.88;7276516;19;152909;-81
2022/07/01 08:09:58;;;;;;;;;;;;;;;22.23;51.15;101328.47;7281031;19;152490;-82
2022/07/01 08:12:26;;;;;;;;;;;;;;;22.20;50.53;101329.09;7282150;19;152395;-80
2022/07/01 08:14:53;;;;;;;;;;;;;;;22.21;50.58;101330.78;7281520;19;153384;-81
2022/07/01 08:17:27;;;;;;;;;;;;;;;22.19;50.62;101327.44;7281839;19;151888;-81
2022/07/01 08:19:55;;;;;;;;;;;;;;;22.14;50.81;101330.34;7278464;19;153800;-81
2022/07/01 08:22:22;;;;;;;;;;;;;;;22.12;50.65;101332.63;7285674;19;152873;-81
2022/07/01 08:24:49;;;;;;;;;;;;;;;22.12;50.87;101329.81;7279608;19;152529;-81
2022/07/01 08:27:27;;;;;;;;;;;;;;;22.09;50.87;101322.81;7280339;19;153817;-81
2022/07/01 08:29:54;;;;;;;;;;;;;;;22.09;50.81;101324.78;7280227;19;152242;-81
2022/07/01 08:32:22;;;;;;;;;;;;;;;22.11;50.75;101320.53;7243010;19;155892;-81
2022/07/01 08:34:48;;;;;;;;;;;;;;;22.10;50.57;101327.31;7276930;19;152296;-83
2022/07/01 08:37:26;;;;;;;;;;;;;;;22.08;50.27;101326.78;7285888;19;152424;-83
2022/07/01 08:39:53;;;;;;;;;;;;;;;22.06;50.38;101331.06;7286289;19;152136;-82
2022/07/01 08:42:20;;;;;;;;;;;;;;;22.08;50.33;101328.75;7286657;19;154197;-82
2022/07/01 08:44:47;;;;;;;;;;;;;;;22.10;50.25;101327.31;7294544;19;152305;-83
2022/07/01 08:47:13;;;;;;;;;;;;;;;22.06;50.12;101328.25;7287312;19;154450;-82
2022/07/01 08:49:49;;;;;;;;;;;;;;;22.06;50.08;101337.53;7284166;19;152264;-82
2022/07/01 08:52:16;;;;;;;;;;;;;;;22.04;49.97;101339.78;7284426;19;153828;-82
2022/07/01 08:54:42;;;;;;;;;;;;;;;22.00;50.17;101343.53;7285500;19;154973;-82
2022/07/01 08:57:09;;;;;;;;;;;;;;;21.95;50.14;101344.47;7284868;19;152137;-82
2022/07/01 09:00:03;;;;;;;;;;;;;;;21.96;50.53;101336.84;7286261;19;152848;-82
2022/07/01 09:03:08;;;;;;;;;;;;;;;21.92;50.29;101339.44;7284007;19;152679;-84
2022/07/01 09:05:36;;;;;;;;;;;;;;;21.92;50.19;101336.63;7276909;19;152514;-82
2022/07/01 09:08:04;;;;;;;;;;;;;;;21.90;49.64;101338.06;7287258;19;152316;-82
2022/07/01 09:10:33;;;;;;;;;;;;;;;21.94;49.70;101344.78;7284731;19;152442;-83
2022/07/01 09:13:04;;;;;;;;;;;;;;;21.94;49.14;101350.41;7286295;19;152350;-81
2022/07/01 09:15:31;;;;;;;;;;;;;;;21.91;49.35;101351.81;7284202;19;153429;-81
2022/07/01 09:18:05;;;;;;;;;;;;;;;21.89;49.48;101345.69;7284500;19;152878;-81
2022/07/01 09:20:35;;;;;;;;;;;;;;;21.86;49.67;101349.09;7282726;19;152610;-81
2022/07/01 09:23:04;;;;;;;;;;;;;;;21.89;49.41;101356.94;7283732;19;152484;-81
2022/07/01 09:25:32;;;;;;;;;;;;;;;21.88;49.34;101360.88;7285475;19;151897;-81
2022/07/01 09:28:03;;;;;;;;;;;;;;;21.93;49.00;101362.81;7287910;19;152828;-82
2022/07/01 09:30:30;;;;;;;;;;;;;;;21.93;48.87;101360.00;7292909;19;152609;-81
2022/07/01 09:33:12;;;;;;;;;;;;;;;21.85;46.35;101364.28;7286402;19;152590;-86
2022/07/01 09:35:40;;;;;;;;;;;;;;;21.71;46.34;101360.63;7280284;19;154101;-81
2022/07/01 09:38:09;;;;;;;;;;;;;;;21.67;46.45;101356.72;7286158;19;152190;-81
2022/07/01 09:40:57;;;;;;;;;;;;;;;21.65;46.44;101368.31;7285869;19;152464;-81
2022/07/01 09:43:25;;;;;;;;;;;;;;;21.61;46.09;101363.59;7283995;19;152811;-81
2022/07/01 09:45:54;;;;;;;;;;;;;;;21.62;46.26;101368.09;7280807;19;152401;-81
2022/07/01 09:48:41;;;;;;;;;;;;;;;21.61;46.55;101356.00;7282808;19;153078;-81
2022/07/01 09:51:08;;;;;;;;;;;;;;;21.56;46.67;101370.13;7278459;19;154745;-81
2022/07/01 09:53:40;;;;;;;;;;;;;;;21.57;46.11;101385.03;7291660;19;151845;-81
2022/07/01 09:56:08;;;;;;;;;;;;;;;21.56;46.25;101372.09;7281978;19;153651;-81
2022/07/01 09:58:38;;;;;;;;;;;;;;;21.60;46.61;101381.59;7276644;19;151889;-81
2022/07/01 10:01:08;;;;;;;;;;;;;;;21.62;46.74;101377.31;7282059;19;152420;-81
2022/07/01 10:03:37;;;;;;;;;;;;;;;21.59;47.08;101386.38;7283666;19;153515;-82
2022/07/01 10:06:07;;;;;;;;;;;;;;;21.59;46.65;101377.09;7282026;19;152192;-81
2022/07/01 10:08:34;;;;;;;;;;;;;;;21.62;46.63;101387.78;7284794;19;152709;-82
2022/07/01 10:11:19;;;;;;;;;;;;;;;21.67;46.22;101385.69;7281676;19;151882;-80
2022/07/01 10:13:46;;;;;;;;;;;;;;;21.73;46.33;101380.81;7279231;19;152285;-81
2022/07/01 10:16:19;;;;;;;;;;;;;;;21.73;46.10;101383.63;7289626;19;155879;-81
2022/07/01 10:18:46;;;;;;;;;;;;;;;21.77;46.17;101386.66;7283100;19;151940;-80
2022/07/01 10:21:25;;;;;;;;;;;;;;;21.74;45.49;101383.34;7281388;19;152772;-79
2022/07/01 10:23:53;;;;;;;;;;;;;;;21.65;45.16;101382.38;7279857;19;153282;-78
2022/07/01 10:26:28;;;;;;;;;;;;;;;21.67;44.89;101380.06;7282726;19;152461;-78
2022/07/01 10:28:55;;;;;;;;;;;;;;;21.65;44.53;101373.09;7283362;19;152136;-78
2022/07/01 10:31:34;;;;;;;;;;;;;;;21.60;44.21;101370.34;7282177;19;152984;-78
2022/07/01 10:34:08;;;;;;;;;;;;;;;21.45;43.99;101373.38;7274300;19;152255;-79
2022/07/01 10:36:35;;;;;;;;;;;;;;;21.37;44.40;101372.09;7283026;19;153610;-78
2022/07/01 10:39:09;;;;;;;;;;;;;;;21.34;44.07;101375.53;7283150;19;153093;-78
2022/07/01 10:41:39;;;;;;;;;;;;;;;21.31;44.05;101370.50;7282512;19;153705;-81
2022/07/01 10:44:10;;;;;;;;;;;;;;;21.19;44.89;101372.94;7280537;19;153964;-81
2022/07/01 10:46:45;;;;;;;;;;;;;;;21.10;45.22;101381.19;7281362;19;152185;-81
2022/07/01 10:49:13;;;;;;;;;;;;;;;20.99;45.00;101371.19;7281450;19;153918;-82
2022/07/01 10:51:50;;;;;;;;;;;;;;;20.97;44.54;101372.66;7279866;19;153984;-80
2022/07/01 10:54:42;;;;;;;;;;;;;;;20.93;45.09;101366.81;7280152;19;153582;-81
2022/07/01 10:57:31;;;;;;;;;;;;;;;20.89;44.96;101373.31;7282434;19;153370;-81
2022/07/01 10:59:59;;;;;;;;;;;;;;;20.90;45.08;101395.47;7288750;19;154760;-81
2022/07/01 11:02:36;;;;;;;;;;;;;;;20.85;44.60;101404.81;7283198;19;153372;-81
2022/07/01 11:05:03;;;;;;;;;;;;;;;20.72;44.78;101387.84;7279446;19;152485;-81
2022/07/01 11:07:31;;;;;;;;;;;;;;;20.72;44.50;101385.88;7282559;19;152544;-83
2022/07/01 11:09:59;;;;;;;;;;;;;;;20.75;44.51;101385.28;7280329;19;152845;-81
2022/07/01 11:12:29;;;;;;;;;;;;;;;20.80;44.71;101388.00;7279214;19;156263;-82
2022/07/01 11:15:01;;;;;;;;;;;;;;;20.82;44.95;101388.56;7280910;19;152775;-81
2022/07/01 11:17:30;;;;;;;;;;;;;;;20.86;45.06;101405.63;7283103;19;153199;-81
2022/07/01 11:19:58;;;;;;;;;;;;;;;20.88;45.60;101406.19;7280973;19;155018;-81
2022/07/01 11:22:26;;;;;;;;;;;;;;;20.88;45.76;101414.63;7289900;19;152451;-81
2022/07/01 11:24:53;;;;;;;;;;;;;;;20.89;46.23;101432.31;7283071;19;153093;-81
2022/07/01 11:27:27;;;;;;;;;;;;;;;20.91;46.65;101427.22;7283063;19;152694;-81
2022/07/01 11:29:56;;;;;;;;;;;;;;;20.92;47.10;101428.91;7281758;19;153261;-81
2022/07/01 11:32:31;;;;;;;;;;;;;;;20.93;47.63;101448.28;7281812;19;154233;-80
2022/07/01 11:35:00;;;;;;;;;;;;;;;20.94;48.19;101437.88;7284127;19;152207;-80
2022/07/01 11:40:18;;;;;;;;;;;;;;;20.96;49.14;101438.41;7280793;19;152748;-81
2022/07/01 11:42:45;;;;;;;;;;;;;;;20.96;49.51;101436.44;7283122;19;152055;-82
2022/07/01 11:45:23;;;;;;;;;;;;;;;20.98;49.74;101428.53;7289794;19;153207;-81
2022/07/01 11:47:50;;;;;;;;;;;;;;;20.98;49.89;101436.13;7282174;19;152016;-82
2022/07/01 11:50:17;;;;;;;;;;;;;;;20.99;50.11;101435.81;7279842;19;153007;-82
2022/07/01 11:52:44;;;;;;;;;;;;;;;20.99;49.91;101426.53;7280558;19;153899;-81
2022/07/01 11:55:11;;;;;;;;;;;;;;;21.01;49.50;101430.75;7277212;19;152611;-82
2022/07/01 11:57:58;;;;;;;;;;;;;;;21.01;49.05;101429.91;7283052;19;154729;-82
2022/07/01 12:00:32;;;;;;;;;;;;;;;21.07;48.83;101417.47;7281452;19;153616;-81
2022/07/01 12:02:59;;;;;;;;;;;;;;;21.13;48.25;101421.91;7283492;19;152380;-81
2022/07/01 12:05:26;;;;;;;;;;;;;;;21.12;47.84;101426.66;7278675;19;153445;-81
2022/07/01 12:07:53;;;;;;;;;;;;;;;21.11;47.00;101419.38;7291788;19;155855;-82
2022/07/01 12:10:24;;;;;;;;;;;;;;;21.11;46.65;101413.75;7287685;19;152082;-82
2022/07/01 12:12:51;;;;;;;;;;;;;;;21.13;47.04;101419.94;7289807;19;153993;-82
2022/07/01 12:15:19;;;;;;;;;;;;;;;21.03;46.49;101428.47;7286553;19;152158;-81
2022/07/01 12:17:46;;;;;;;;;;;;;;;21.02;46.64;101426.81;7285192;19;154183;-82
2022/07/01 12:20:13;;;;;;;;;;;;;;;21.01;46.42;101438.34;7283537;19;154417;-82
2022/07/01 12:22:40;;;;;;;;;;;;;;;21.07;46.90;101432.38;7293588;19;152087;-81
2022/07/01 12:25:14;;;;;;;;;;;;;;;21.07;46.79;101431.53;7298394;19;153600;-80
2022/07/01 12:27:43;;;;;;;;;;;;;;;21.07;47.01;101420.28;7289020;19;152095;-81
2022/07/01 12:30:23;;;;;;;;;;;;;;;21.07;46.91;101429.56;7302984;19;151619;-81
2022/07/01 12:32:50;;;;;;;;;;;;;;;21.06;46.72;101427.88;7293405;19;154026;-81
2022/07/01 12:35:36;;;;;;;;;;;;;;;21.05;46.78;101414.97;7290979;19;152063;-81
2022/07/01 12:38:07;;;;;;;;;;;;;;;21.08;46.51;101414.34;7285086;19;153685;-81
2022/07/01 12:40:34;;;;;;;;;;;;;;;21.07;46.71;101411.84;7286404;19;153743;-82
2022/07/01 12:43:06;;;;;;;;;;;;;;;21.08;47.05;101417.16;7287109;19;151748;-81
2022/07/01 12:45:39;;;;;;;;;;;;;;;21.08;47.23;101407.88;7281901;19;155050;-82
2022/07/01 12:48:06;;;;;;;;;;;;;;;21.08;46.92;101413.50;7286606;19;153799;-82
2022/07/01 12:50:33;;;;;;;;;;;;;;;21.08;46.66;101408.72;7291410;19;152087;-82
2022/07/01 12:53:08;;;;;;;;;;;;;;;21.08;46.77;101405.91;7285060;19;155730;-81